Time;durP1;ratioP1;P1;durP2;ratioP2;P2;SDS_P1;SDS_P2;PMS_P1;PMS_P2;Temp;Humidity;BMP_temperature;BMP_pressure;BME280_temperature;BME280_humidity;BME280_pressure;Samples;Min_cycle;Max_cycle;Signal;HPM_P1;HPM_P2
2023/08/26 00:00:59;;;;;;;9.70;5.42;;;;;;;20.68;61.15;100227.95;1741811;82;21086;-64
2023/08/26 00:03:28;;;;;;;11.85;5.30;;;;;;;20.67;61.24;100231.29;1741747;82;21101;-64
2023/08/26 00:05:57;;;;;;;9.65;5.40;;;;;;;20.67;61.29;100232.68;1741749;82;21079;-64
2023/08/26 00:08:26;;;;;;;11.68;5.75;;;;;;;20.68;61.37;100230.73;1741909;82;21086;-65
2023/08/26 00:10:58;;;;;;;10.28;5.83;;;;;;;20.65;61.47;100229.33;1741892;82;21062;-65
2023/08/26 00:13:28;;;;;;;10.05;5.25;;;;;;;20.65;61.46;100229.88;1742025;82;21070;-63
2023/08/26 00:15:56;;;;;;;9.93;5.12;;;;;;;20.65;61.44;100229.33;1741781;81;21505;-64
2023/08/26 00:18:27;;;;;;;11.33;6.28;;;;;;;20.66;61.34;100228.22;1741292;81;21031;-65
2023/08/26 00:20:57;;;;;;;14.50;5.10;;;;;;;20.70;61.21;100235.48;1741371;82;21071;-65
2023/08/26 00:23:26;;;;;;;11.63;5.50;;;;;;;20.73;61.21;100230.22;1741269;82;21214;-64
2023/08/26 00:25:54;;;;;;;11.05;5.70;;;;;;;20.76;61.38;100223.27;1741211;82;21058;-65
2023/08/26 00:28:24;;;;;;;8.20;5.30;;;;;;;20.78;61.56;100226.63;1741322;82;21094;-66
2023/08/26 00:31:00;;;;;;;10.30;5.05;;;;;;;20.81;61.61;100224.17;1741433;82;21082;-64
2023/08/26 00:33:29;;;;;;;9.65;5.47;;;;;;;20.84;61.47;100228.36;1741294;82;21070;-65
2023/08/26 00:36:00;;;;;;;10.05;5.25;;;;;;;20.83;61.35;100219.72;1741203;82;21552;-64
2023/08/26 00:38:31;;;;;;;7.70;5.25;;;;;;;20.85;61.31;100223.08;1741313;82;21067;-64
2023/08/26 00:41:01;;;;;;;9.93;5.62;;;;;;;20.88;61.28;100232.28;1741408;82;21035;-64
2023/08/26 00:43:33;;;;;;;13.53;5.95;;;;;;;20.90;61.26;100221.71;1741206;82;21050;-65
2023/08/26 00:46:03;;;;;;;11.78;6.10;;;;;;;20.92;61.27;100224.23;1741165;82;21098;-64
2023/08/26 00:48:33;;;;;;;13.40;6.30;;;;;;;20.93;61.25;100221.72;1696326;82;21536;-64
2023/08/26 00:51:02;;;;;;;11.90;5.80;;;;;;;20.93;61.24;100225.34;1718962;82;21043;-64
2023/08/26 00:53:30;;;;;;;9.83;5.67;;;;;;;20.93;61.29;100222.56;1741204;82;21066;-65
2023/08/26 00:55:59;;;;;;;13.18;6.17;;;;;;;20.93;61.49;100223.95;1741187;82;21015;-65
2023/08/26 00:58:28;;;;;;;11.78;5.53;;;;;;;20.93;61.66;100222.56;1741275;81;21070;-64
2023/08/26 01:00:56;;;;;;;12.75;5.53;;;;;;;20.94;61.69;100218.67;1741411;82;21070;-65
2023/08/26 01:03:26;;;;;;;11.93;5.72;;;;;;;20.94;61.72;100222.84;1718308;82;21522;-64
2023/08/26 01:05:56;;;;;;;12.43;5.22;;;;;;;20.93;61.86;100218.39;1741167;82;21086;-64
2023/08/26 01:08:24;;;;;;;12.90;5.92;;;;;;;20.92;61.88;100211.69;1741329;82;21090;-65
2023/08/26 01:11:08;;;;;;;8.60;5.40;;;;;;;20.86;61.94;100209.44;1741355;81;21075;-65
2023/08/26 01:14:23;;;;;;;11.03;5.55;;;;;;;20.83;61.98;100207.19;1741207;82;21584;-65
2023/08/26 01:16:52;;;;;;;10.53;5.00;;;;;;;20.80;62.05;100218.84;1741202;82;21036;-64
2023/08/26 01:19:35;;;;;;;8.20;4.83;;;;;;;20.82;62.07;100215.27;1741103;82;21584;-64
2023/08/26 01:22:07;;;;;;;10.58;5.12;;;;;;;20.82;62.05;100218.05;1741163;82;21014;-63
2023/08/26 01:24:41;;;;;;;9.10;5.08;;;;;;;20.82;62.03;100212.48;1741401;82;21510;-64
2023/08/26 01:27:10;;;;;;;9.10;5.22;;;;;;;20.81;62.33;100213.03;1741149;82;21059;-65
2023/08/26 01:29:39;;;;;;;8.45;5.15;;;;;;;20.79;62.52;100221.34;1741552;82;21083;-64
2023/08/26 01:32:25;;;;;;;15.15;5.20;;;;;;;20.75;62.45;100216.86;1741202;82;21461;-65
2023/08/26 01:34:57;;;;;;;9.03;5.40;;;;;;;20.74;62.31;100215.19;1732411;82;21474;-64
2023/08/26 01:37:26;;;;;;;10.88;5.10;;;;;;;20.72;62.32;100216.56;1741218;82;21082;-65
2023/08/26 01:39:56;;;;;;;10.03;5.25;;;;;;;20.72;62.34;100209.60;1741340;82;21580;-65
2023/08/26 01:42:26;;;;;;;10.88;5.33;;;;;;;20.74;62.42;100204.59;1741146;82;21083;-64
2023/08/26 01:44:54;;;;;;;9.50;4.97;;;;;;;20.73;62.58;100200.14;1741406;81;21110;-63
2023/08/26 01:47:24;;;;;;;8.80;4.85;;;;;;;20.73;62.74;100201.53;1741540;82;21058;-68
2023/08/26 01:49:53;;;;;;;8.33;4.95;;;;;;;20.72;62.66;100197.07;1741305;82;21659;-64
2023/08/26 01:52:22;;;;;;;10.25;5.37;;;;;;;20.70;62.70;100196.50;1741312;82;21077;-64
2023/08/26 01:54:50;;;;;;;9.05;5.10;;;;;;;20.67;62.73;100207.63;1741466;82;21079;-64
2023/08/26 01:57:19;;;;;;;9.03;5.30;;;;;;;20.62;62.79;100206.20;1741302;82;21458;-64
2023/08/26 01:59:48;;;;;;;9.50;5.37;;;;;;;20.59;62.77;100205.34;1741471;82;21462;-64
2023/08/26 02:02:17;;;;;;;10.88;5.42;;;;;;;20.58;62.82;100202.27;1741253;82;21059;-65
2023/08/26 02:04:46;;;;;;;11.05;5.33;;;;;;;20.62;62.81;100202.58;1741298;82;21510;-65
2023/08/26 02:07:15;;;;;;;8.75;5.40;;;;;;;20.65;63.05;100200.65;1741369;82;21439;-64
2023/08/26 02:09:45;;;;;;;8.25;5.42;;;;;;;20.65;63.27;100192.30;1741285;81;21067;-64
2023/08/26 02:12:14;;;;;;;13.28;6.58;;;;;;;20.66;63.11;100199.54;1741217;82;21467;-65
2023/08/26 02:14:43;;;;;;;8.55;5.47;;;;;;;20.66;63.00;100187.84;1741306;82;21047;-66
2023/08/26 02:17:12;;;;;;;10.23;5.20;;;;;;;20.66;62.94;100191.19;1741452;82;21030;-64
2023/08/26 02:19:41;;;;;;;8.50;5.17;;;;;;;20.64;62.87;100197.58;1741877;82;21087;-64
2023/08/26 02:22:10;;;;;;;12.58;5.33;;;;;;;20.62;62.87;100192.28;1741856;82;21471;-65
2023/08/26 02:24:40;;;;;;;9.28;5.70;;;;;;;20.59;62.85;100201.17;1741859;82;21540;-64
2023/08/26 02:27:10;;;;;;;11.08;5.78;;;;;;;20.55;62.90;100200.87;1741808;81;21031;-64
2023/08/26 02:29:39;;;;;;;8.33;5.37;;;;;;;20.50;63.00;100200.84;1741782;82;21054;-65
2023/08/26 02:32:08;;;;;;;9.65;5.72;;;;;;;20.50;63.10;100203.62;1741961;82;21160;-67
2023/08/26 02:34:37;;;;;;;9.88;5.40;;;;;;;20.52;63.13;100195.84;1741950;82;21059;-65
2023/08/26 02:37:06;;;;;;;11.08;5.10;;;;;;;20.52;63.13;100200.02;1741993;81;21043;-64
2023/08/26 02:39:37;;;;;;;9.23;5.28;;;;;;;20.52;63.17;100200.56;1742000;82;21102;-64
2023/08/26 02:42:06;;;;;;;9.75;5.40;;;;;;;20.51;63.16;100194.16;1741943;82;21461;-65
2023/08/26 02:44:36;;;;;;;16.15;5.53;;;;;;;20.52;63.19;100197.78;1741787;82;21446;-64
2023/08/26 02:47:05;;;;;;;10.03;5.90;;;;;;;20.53;63.24;100196.13;1741785;81;21054;-64
2023/08/26 02:49:34;;;;;;;9.98;6.10;;;;;;;20.55;63.30;100192.52;1741833;82;21058;-65
2023/08/26 02:52:04;;;;;;;10.40;5.70;;;;;;;20.55;63.36;100184.16;1741907;82;21035;-65
2023/08/26 02:54:33;;;;;;;9.85;5.45;;;;;;;20.55;63.48;100195.85;1741775;81;21086;-64
2023/08/26 02:57:02;;;;;;;8.83;5.37;;;;;;;20.54;63.53;100189.45;1741951;81;21043;-64
2023/08/26 02:59:31;;;;;;;10.95;5.55;;;;;;;20.55;63.61;100188.89;1741974;82;21548;-67
2023/08/26 03:02:04;;;;;;;10.43;5.70;;;;;;;20.54;63.76;100195.02;1741960;82;21026;-64
2023/08/26 03:04:34;;;;;;;12.45;5.70;;;;;;;20.54;63.83;100192.23;1741820;82;21102;-65
2023/08/26 03:07:04;;;;;;;12.18;5.37;;;;;;;20.50;63.93;100186.91;1742003;82;21039;-64
2023/08/26 03:09:33;;;;;;;9.18;5.47;;;;;;;20.50;64.14;100193.03;1741984;82;21038;-66
2023/08/26 03:12:02;;;;;;;11.73;6.17;;;;;;;20.50;64.31;100196.66;1741746;82;21490;-65
2023/08/26 03:14:31;;;;;;;11.73;5.62;;;;;;;20.51;64.46;100191.38;1742006;81;21011;-64
2023/08/26 03:17:00;;;;;;;11.28;5.65;;;;;;;20.53;64.46;100189.16;1741945;82;21654;-64
2023/08/26 03:19:29;;;;;;;11.08;5.53;;;;;;;20.56;64.46;100191.41;1741350;81;21098;-63
2023/08/26 03:21:58;;;;;;;8.73;5.33;;;;;;;20.57;64.29;100195.88;1741464;82;21043;-65
2023/08/26 03:24:29;;;;;;;9.68;5.47;;;;;;;20.57;63.95;100201.44;1741194;82;21062;-64
2023/08/26 03:26:58;;;;;;;10.13;5.28;;;;;;;20.59;63.84;100196.99;1741290;82;21471;-65
2023/08/26 03:29:27;;;;;;;10.65;5.72;;;;;;;20.60;63.88;100204.23;1741452;82;21055;-64
2023/08/26 03:31:56;;;;;;;13.88;5.90;;;;;;;20.61;64.19;100206.47;1741252;81;21548;-64
2023/08/26 03:34:25;;;;;;;9.13;5.22;;;;;;;20.61;64.25;100198.11;1741187;82;21083;-65
2023/08/26 03:36:54;;;;;;;11.45;5.40;;;;;;;20.60;64.33;100202.01;1741395;82;21451;-64
2023/08/26 03:39:23;;;;;;;12.33;4.97;;;;;;;20.60;64.44;100202.01;1741273;82;21467;-64
2023/08/26 03:41:55;;;;;;;10.20;5.42;;;;;;;20.59;64.49;100205.34;1741347;82;21058;-64
2023/08/26 03:44:24;;;;;;;10.35;5.35;;;;;;;20.62;64.37;100206.75;1741257;81;21078;-64
2023/08/26 03:46:53;;;;;;;7.47;5.00;;;;;;;20.65;64.32;100204.83;1741350;81;21082;-64
2023/08/26 03:49:22;;;;;;;7.55;5.22;;;;;;;20.66;64.14;100200.38;1741256;81;21062;-63
2023/08/26 03:51:51;;;;;;;9.95;5.40;;;;;;;20.69;63.97;100203.18;1741400;82;21079;-65
2023/08/26 03:54:20;;;;;;;10.13;4.90;;;;;;;20.68;63.77;100195.94;1741225;82;21110;-64
2023/08/26 03:56:49;;;;;;;12.13;5.10;;;;;;;20.65;63.65;100188.95;1741387;82;21011;-64
2023/08/26 03:59:19;;;;;;;10.55;4.78;;;;;;;20.66;63.73;100189.80;1741258;82;21509;-64
2023/08/26 04:01:48;;;;;;;11.20;4.70;;;;;;;20.66;63.49;100190.63;1741392;81;21051;-64
2023/08/26 04:04:17;;;;;;;11.00;4.80;;;;;;;20.65;63.03;100185.34;1741190;82;21094;-64
2023/08/26 04:06:46;;;;;;;12.30;5.37;;;;;;;20.62;62.73;100181.14;1741419;82;21026;-65
2023/08/26 04:09:17;;;;;;;10.18;5.10;;;;;;;20.63;62.62;100168.06;1741260;82;21042;-65
2023/08/26 04:11:46;;;;;;;9.50;5.17;;;;;;;20.65;62.40;100176.42;1741495;82;21015;-64
2023/08/26 04:14:16;;;;;;;10.00;4.65;;;;;;;20.68;62.28;100172.27;1741304;82;21062;-64
2023/08/26 04:16:46;;;;;;;11.90;5.28;;;;;;;20.71;62.23;100175.34;1741427;82;21523;-64
2023/08/26 04:19:16;;;;;;;10.65;5.00;;;;;;;20.75;61.75;100177.04;1741413;82;21063;-64
2023/08/26 04:21:45;;;;;;;11.75;5.95;;;;;;;20.77;61.49;100177.61;1741906;82;21150;-65
2023/08/26 04:24:14;;;;;;;10.98;5.33;;;;;;;20.80;61.36;100172.89;1741899;82;21047;-64
2023/08/26 04:26:44;;;;;;;9.28;5.50;;;;;;;20.83;61.28;100170.43;1741760;81;21047;-66
2023/08/26 04:29:13;;;;;;;12.28;5.72;;;;;;;20.91;61.08;100172.41;1741725;82;21047;-64
2023/08/26 04:31:42;;;;;;;9.23;5.55;;;;;;;20.98;60.77;100171.05;1741784;81;21062;-65
2023/08/26 04:34:13;;;;;;;9.50;5.17;;;;;;;21.07;60.43;100168.03;1741662;81;21007;-64
2023/08/26 04:36:42;;;;;;;10.10;5.55;;;;;;;21.15;60.11;100161.09;1741964;82;21042;-65
2023/08/26 04:39:11;;;;;;;9.93;5.20;;;;;;;21.23;59.63;100165.33;1741718;82;21058;-64
2023/08/26 04:41:40;;;;;;;8.85;5.70;;;;;;;21.30;59.39;100174.27;1741920;82;21066;-64
2023/08/26 04:44:09;;;;;;;7.58;5.10;;;;;;;21.34;59.02;100173.44;1741742;81;21011;-65
2023/08/26 04:46:38;;;;;;;8.80;5.25;;;;;;;21.38;58.73;100183.48;1741755;82;21768;-64
2023/08/26 04:49:07;;;;;;;13.48;6.17;;;;;;;21.41;58.69;100173.18;1742063;81;21098;-65
2023/08/26 04:51:38;;;;;;;6.95;4.95;;;;;;;21.46;58.67;100176.85;1742032;82;21134;-64
2023/08/26 04:54:08;;;;;;;12.25;5.67;;;;;;;21.50;58.13;100170.17;1741783;81;21043;-65
2023/08/26 04:56:37;;;;;;;10.40;5.92;;;;;;;21.53;57.88;100172.41;1741763;82;21102;-64
2023/08/26 04:59:06;;;;;;;8.75;5.10;;;;;;;21.57;57.55;100172.69;1741953;82;21126;-65
2023/08/26 05:01:36;;;;;;;9.95;5.90;;;;;;;21.62;57.38;100172.14;1741757;82;21482;-64
2023/08/26 05:04:05;;;;;;;14.50;6.12;;;;;;;21.68;56.95;100166.02;1742041;82;21090;-66
2023/08/26 05:06:34;;;;;;;9.15;5.62;;;;;;;21.74;56.84;100166.30;1741926;82;21150;-65
2023/08/26 05:09:04;;;;;;;13.30;6.03;;;;;;;;;;1741769;82;21490;-65
2023/08/26 05:11:32;;;;;;;11.73;6.35;;;;;;;21.84;56.70;100160.17;1741663;82;21086;-65
2023/08/26 05:14:03;;;;;;;14.18;6.12;;;;;;;21.88;56.69;100159.06;1741980;82;21042;-65
2023/08/26 05:16:32;;;;;;;11.35;6.78;;;;;;;21.91;56.77;100150.69;1741898;82;21070;-65
2023/08/26 05:19:02;;;;;;;13.93;6.62;;;;;;;21.95;56.91;100150.41;1741686;81;21560;-64
2023/08/26 05:21:31;;;;;;;12.10;5.72;;;;;;;21.98;57.08;100149.86;1741880;82;21042;-65
2023/08/26 05:24:03;;;;;;;9.45;5.75;;;;;;;22.03;57.09;100148.49;1741766;82;21043;-65
2023/08/26 05:26:37;;;;;;;12.98;6.97;;;;;;;22.09;56.84;100144.58;1741981;81;21125;-65
2023/08/26 05:29:07;;;;;;;9.55;5.60;;;;;;;22.18;56.41;100151.30;1742067;82;21062;-65
2023/08/26 05:31:37;;;;;;;9.53;5.50;;;;;;;22.28;55.88;100135.94;1742059;82;21066;-64
2023/08/26 05:34:08;;;;;;;9.68;4.55;;;;;;;22.41;55.10;100141.50;1741990;82;21497;-65
2023/08/26 05:36:37;;;;;;;8.78;4.50;;;;;;;22.54;54.09;100145.66;1742011;81;21051;-64
2023/08/26 05:39:07;;;;;;;9.80;5.00;;;;;;;22.64;53.02;100146.47;1742002;82;21035;-64
2023/08/26 05:41:38;;;;;;;10.25;5.37;;;;;;;22.74;52.79;100140.84;1741960;82;21528;-65
2023/08/26 05:44:07;;;;;;;8.15;4.83;;;;;;;22.85;52.66;100150.09;1741915;82;21058;-66
2023/08/26 05:46:36;;;;;;;9.30;4.58;;;;;;;22.94;52.19;100143.35;1742032;82;21094;-66
2023/08/26 05:49:05;;;;;;;9.53;4.12;;;;;;;23.01;52.00;100147.51;1741751;82;21055;-65
2023/08/26 05:51:34;;;;;;;13.50;5.58;;;;;;;23.04;51.92;100145.54;1742004;82;21046;-65
2023/08/26 05:54:04;;;;;;;10.63;5.37;;;;;;;23.07;52.05;100144.97;1741778;82;21132;-64
2023/08/26 05:56:35;;;;;;;10.32;4.95;;;;;;;23.12;52.15;100151.09;1741905;82;21099;-65
2023/08/26 05:59:06;;;;;;;7.67;4.20;;;;;;;23.15;51.95;100145.48;1741843;82;21039;-65
2023/08/26 06:01:35;;;;;;;10.00;4.55;;;;;;;23.15;51.29;100140.73;1741986;82;21047;-66
2023/08/26 06:04:06;;;;;;;9.75;4.90;;;;;;;23.18;51.03;100140.16;1742004;82;21007;-65
2023/08/26 06:06:36;;;;;;;10.23;4.50;;;;;;;23.22;50.94;100137.62;1741784;81;21094;-65
2023/08/26 06:09:05;;;;;;;8.88;4.30;;;;;;;23.25;50.57;100135.66;1741866;82;21031;-65
2023/08/26 06:11:34;;;;;;;9.08;4.10;;;;;;;23.29;50.61;100134.78;1741976;82;21170;-65
2023/08/26 06:14:04;;;;;;;10.70;4.58;;;;;;;23.36;50.62;100135.30;1741730;81;21462;-64
2023/08/26 06:16:33;;;;;;;16.30;4.83;;;;;;;23.46;50.43;100127.45;1741999;82;21062;-65
2023/08/26 06:19:02;;;;;;;12.60;4.80;;;;;;;23.57;50.32;100128.24;1741956;81;21074;-66
2023/08/26 06:21:32;;;;;;;20.95;5.10;;;;;;;23.70;49.88;100131.22;1741948;81;21439;-65
2023/08/26 06:24:02;;;;;;;15.80;5.22;;;;;;;23.84;49.83;100131.39;1741993;82;21066;-65
2023/08/26 06:26:32;;;;;;;17.95;5.28;;;;;;;23.97;49.56;100124.28;1742177;81;21050;-65
2023/08/26 06:29:03;;;;;;;13.83;5.03;;;;;;;24.08;49.31;100124.50;1741821;82;21470;-64
2023/08/26 06:31:33;;;;;;;25.90;5.90;;;;;;;24.20;49.10;100126.34;1741780;82;21019;-66
2023/08/26 06:34:03;;;;;;;11.80;4.85;;;;;;;24.32;49.04;100126.81;1741750;82;21508;-65
2023/08/26 06:36:32;;;;;;;12.80;5.83;;;;;;;24.43;48.90;100128.94;1741755;81;21106;-66
2023/08/26 06:39:02;;;;;;;16.42;5.53;;;;;;;24.55;49.04;100138.34;1741840;82;21506;-65
2023/08/26 06:41:33;;;;;;;14.85;5.35;;;;;;;24.64;48.91;100135.98;1741805;82;21101;-66
2023/08/26 06:44:02;;;;;;;12.30;4.75;;;;;;;24.73;48.56;100129.77;1741795;81;21474;-65
2023/08/26 06:46:34;;;;;;;12.75;4.70;;;;;;;24.81;48.11;100124.90;1741993;81;21047;-66
2023/08/26 06:49:04;;;;;;;7.92;4.50;;;;;;;24.88;47.52;100126.20;1741971;82;21038;-64
2023/08/26 06:51:33;;;;;;;11.05;4.85;;;;;;;24.96;47.58;100129.75;1741747;81;21063;-64
2023/08/26 06:54:02;;;;;;;13.80;4.90;;;;;;;25.04;47.32;100127.45;1741893;82;21067;-65
2023/08/26 06:56:31;;;;;;;9.88;4.70;;;;;;;25.12;47.11;100140.23;1741675;82;21007;-66
2023/08/26 06:58:59;;;;;;;11.33;4.70;;;;;;;25.18;47.12;100143.80;1741759;82;21042;-65
2023/08/26 07:01:31;;;;;;;14.33;5.22;;;;;;;25.25;47.06;100130.23;1741953;82;21082;-65
2023/08/26 07:04:07;;;;;;;10.03;5.35;;;;;;;25.31;46.84;100134.64;1741750;82;21047;-65
2023/08/26 07:06:36;;;;;;;8.07;4.80;;;;;;;25.40;46.87;100134.83;1741975;82;21086;-65
2023/08/26 07:09:05;;;;;;;9.05;4.60;;;;;;;25.47;46.80;100138.92;1741759;82;21525;-64
2023/08/26 07:11:34;;;;;;;10.65;4.70;;;;;;;25.52;46.80;100140.25;1742043;82;21227;-65
2023/08/26 07:14:04;;;;;;;9.65;4.87;;;;;;;25.59;46.87;100146.88;1741793;82;21030;-64
2023/08/26 07:16:33;;;;;;;11.45;4.70;;;;;;;25.71;47.00;100150.66;1741875;82;21054;-65
2023/08/26 07:19:03;;;;;;;9.68;4.80;;;;;;;25.85;46.95;100144.55;1741978;82;21050;-65
2023/08/26 07:21:32;;;;;;;9.28;4.90;;;;;;;26.04;46.77;100145.37;1719438;82;21015;-64
2023/08/26 07:24:02;;;;;;;10.18;5.33;;;;;;;26.28;46.46;100144.41;1719636;83;21039;-64
2023/08/26 07:26:33;;;;;;;9.78;5.22;;;;;;;26.58;46.17;100150.06;1719593;83;21027;-65
2023/08/26 07:29:02;;;;;;;15.18;5.08;;;;;;;26.94;45.64;100135.58;1719548;83;21492;-65
2023/08/26 07:31:32;;;;;;;9.73;5.62;;;;;;;27.38;44.76;100144.80;1719465;83;21014;-65
2023/08/26 07:34:01;;;;;;;10.00;4.80;;;;;;;27.78;43.42;100143.62;1719620;83;21011;-66
2023/08/26 07:36:31;;;;;;;12.88;5.08;;;;;;;28.11;43.01;100145.64;1719720;83;21070;-65
2023/08/26 07:39:00;;;;;;;13.35;4.62;;;;;;;28.46;42.07;100145.89;1719462;83;21447;-66
2023/08/26 07:41:29;;;;;;;11.60;5.12;;;;;;;28.72;40.95;100143.48;1719610;83;21051;-68
2023/08/26 07:43:58;;;;;;;10.53;6.33;;;;;;;28.95;40.63;100146.25;1719429;83;21094;-65
2023/08/26 07:46:28;;;;;;;15.00;6.10;;;;;;;29.22;40.54;100140.94;1719448;83;21070;-65
2023/08/26 07:48:59;;;;;;;10.45;4.72;;;;;;;29.53;39.98;100139.47;1719694;83;21284;-65
2023/08/26 07:51:29;;;;;;;8.18;4.40;;;;;;;29.84;39.43;100135.91;1719448;83;21090;-67
2023/08/26 07:53:59;;;;;;;12.00;4.67;;;;;;;30.16;38.69;100130.36;1714178;82;21033;-67
2023/08/26 07:56:29;;;;;;;14.10;4.87;;;;;;;30.41;38.03;100130.05;1712328;83;21051;-65
2023/08/26 07:58:59;;;;;;;16.02;5.08;;;;;;;30.61;37.57;100121.48;1672163;85;21096;-66
2023/08/26 08:01:28;;;;;;;178.95;25.52;;;;;;;30.75;36.58;100124.09;1710387;84;21063;-63
2023/08/26 08:03:58;;;;;;;20.23;6.17;;;;;;;30.92;36.22;100121.17;1711194;84;21071;-64
2023/08/26 08:06:27;;;;;;;8.30;4.00;;;;;;;31.20;34.96;100116.71;1711294;84;21071;-66
2023/08/26 08:08:57;;;;;;;7.60;4.10;;;;;;;31.44;34.46;100119.50;1711467;84;21052;-67
2023/08/26 08:11:26;;;;;;;8.68;4.25;;;;;;;31.76;34.09;100113.10;1717555;83;21487;-67
2023/08/26 08:13:54;;;;;;;8.85;4.20;;;;;;;32.03;33.55;100103.20;1716703;83;21023;-67
2023/08/26 08:16:23;;;;;;;10.72;3.83;;;;;;;32.10;33.45;100096.97;1710334;84;21530;-67
2023/08/26 08:18:54;;;;;;;11.80;3.65;;;;;;;32.05;33.34;100094.35;1710467;84;21036;-67
2023/08/26 08:21:22;;;;;;;10.00;3.62;;;;;;;32.09;33.28;100093.30;1727834;82;21072;-66
2023/08/26 08:23:51;;;;;;;10.60;4.22;;;;;;;32.19;32.91;100100.54;1732093;83;21052;-67
2023/08/26 08:26:19;;;;;;;8.03;3.90;;;;;;;32.28;33.17;100107.56;1731922;83;21040;-67
2023/08/26 08:28:49;;;;;;;8.50;3.77;;;;;;;32.26;33.11;100104.25;1732736;83;21020;-67
2023/08/26 08:31:19;;;;;;;10.48;3.83;;;;;;;32.27;32.50;100105.91;1732727;82;21091;-66
2023/08/26 08:33:49;;;;;;;7.83;3.52;;;;;;;32.19;32.27;100103.97;1732908;83;21055;-66
2023/08/26 08:36:18;;;;;;;6.95;3.62;;;;;;;32.11;32.38;100102.29;1732832;83;21448;-66
2023/08/26 08:38:47;;;;;;;12.07;4.12;;;;;;;32.01;32.43;100101.89;1732780;82;21553;-66
2023/08/26 08:41:16;;;;;;;9.93;4.20;;;;;;;31.93;32.76;100099.98;1732561;83;21103;-66
2023/08/26 08:43:45;;;;;;;6.40;4.10;;;;;;;31.79;33.02;100093.98;1732854;83;21020;-67
2023/08/26 08:46:17;;;;;;;11.12;3.70;;;;;;;31.60;33.10;100105.55;1732757;83;21545;-67
2023/08/26 08:48:46;;;;;;;5.75;3.37;;;;;;;31.37;33.62;100090.90;1732769;83;21079;-68
2023/08/26 08:51:15;;;;;;;6.33;3.50;;;;;;;31.27;33.90;100089.30;1732748;82;21021;-67
2023/08/26 08:53:45;;;;;;;9.08;3.60;;;;;;;31.30;33.97;100087.78;1732663;83;21100;-65
2023/08/26 08:56:20;;;;;;;12.03;3.90;;;;;;;31.40;34.15;100093.88;1732878;83;21095;-67
2023/08/26 08:58:47;;;;;;;5.62;3.50;;;;;;;31.48;33.97;100089.31;1732462;82;21071;-66
2023/08/26 09:01:16;;;;;;;8.88;3.60;;;;;;;31.53;34.00;100087.69;1732928;83;21034;-67
2023/08/26 09:03:45;;;;;;;8.80;3.80;;;;;;;31.60;34.06;100085.72;1733792;82;21031;-67
2023/08/26 09:06:14;;;;;;;8.30;4.17;;;;;;;31.58;34.18;100076.73;1733812;83;21094;-67
2023/08/26 09:08:44;;;;;;;5.62;3.80;;;;;;;31.52;34.70;100080.36;1733929;83;20964;-66
2023/08/26 09:11:13;;;;;;;7.60;4.12;;;;;;;31.55;34.75;100078.26;1733982;83;21039;-67
2023/08/26 09:13:43;;;;;;;12.68;3.80;;;;;;;31.52;34.84;100080.36;1733965;82;21007;-67
2023/08/26 09:16:11;;;;;;;8.30;3.70;;;;;;;31.45;35.12;100083.75;1733962;83;21050;-67
2023/08/26 09:18:41;;;;;;;6.33;3.70;;;;;;;31.41;35.22;100075.70;1733812;83;21458;-66
2023/08/26 09:21:11;;;;;;;5.70;3.90;;;;;;;31.40;35.25;100074.05;1722566;82;21083;-67
2023/08/26 09:23:46;;;;;;;9.48;4.22;;;;;;;31.36;35.32;100075.08;1711271;83;21071;-66
2023/08/26 09:26:16;;;;;;;10.10;4.37;;;;;;;31.36;36.46;100066.59;1674528;86;21059;-67
2023/08/26 09:28:48;;;;;;;6.08;4.17;;;;;;;31.40;36.73;100067.55;1659185;85;21094;-66
2023/08/26 09:31:17;;;;;;;7.50;3.92;;;;;;;31.39;36.44;100063.06;1702567;84;21071;-66
2023/08/26 09:34:02;;;;;;;11.73;4.37;;;;;;;31.36;36.32;100052.43;1701221;83;21067;-66
2023/08/26 09:36:40;;;;;;;8.33;4.67;;;;;;;31.28;36.73;100047.08;1667189;85;21522;-67
2023/08/26 09:39:13;;;;;;;5.62;4.05;;;;;;;31.17;36.74;100048.05;1701012;84;21071;-66
2023/08/26 09:41:43;;;;;;;7.37;4.35;;;;;;;31.13;36.93;100049.05;1701323;84;21016;-67
2023/08/26 09:44:18;;;;;;;6.25;4.20;;;;;;;31.09;37.13;100041.83;1622727;87;21999;-66
2023/08/26 09:46:47;;;;;;;6.22;4.55;;;;;;;31.06;37.47;100040.27;1623000;88;21082;-66
2023/08/26 09:49:17;;;;;;;9.18;4.37;;;;;;;31.05;37.92;100035.78;1606582;88;21117;-66
2023/08/26 09:51:47;;;;;;;5.72;4.30;;;;;;;31.02;38.04;100037.30;1623093;87;21063;-65
2023/08/26 09:54:19;;;;;;;6.08;4.12;;;;;;;31.02;37.88;100040.13;1631953;88;21145;-67
2023/08/26 09:56:49;;;;;;;9.30;4.83;;;;;;;30.99;37.92;100040.81;1623120;87;21085;-66
2023/08/26 09:59:18;;;;;;;6.72;4.58;;;;;;;30.99;37.90;100042.81;1632164;87;21097;-66
2023/08/26 10:01:47;;;;;;;7.40;4.35;;;;;;;30.96;38.19;100039.26;1634089;84;21112;-66
2023/08/26 10:04:20;;;;;;;7.22;4.72;;;;;;;30.95;38.03;100044.09;1690767;83;21504;-66
2023/08/26 10:06:54;;;;;;;7.00;4.78;;;;;;;30.93;37.36;100043.60;1676190;84;21028;-65
2023/08/26 10:09:51;;;;;;;7.80;4.90;;;;;;;30.89;37.59;100040.63;1676526;85;21071;-67
2023/08/26 10:12:23;;;;;;;5.62;4.55;;;;;;;30.87;37.55;100052.05;1676873;85;21079;-66
2023/08/26 10:14:52;;;;;;;7.33;4.92;;;;;;;30.87;37.68;100050.63;1684827;85;21043;-66
2023/08/26 10:17:21;;;;;;;6.85;4.50;;;;;;;30.87;37.71;100050.63;1676331;85;21040;-65
2023/08/26 10:19:49;;;;;;;7.85;4.80;;;;;;;30.82;37.81;100046.59;1676252;85;21446;-66
2023/08/26 10:22:18;;;;;;;6.80;4.70;;;;;;;30.72;37.94;100058.30;1727572;83;21083;-66
2023/08/26 10:24:47;;;;;;;13.20;4.78;;;;;;;30.65;38.31;100046.68;1731942;83;21545;-67
2023/08/26 10:27:17;;;;;;;7.60;5.12;;;;;;;30.57;38.52;100057.67;1732183;83;21075;-65
2023/08/26 10:29:47;;;;;;;7.08;5.08;;;;;;;30.48;38.85;100061.67;1732265;82;21507;-66
2023/08/26 10:32:20;;;;;;;9.58;5.47;;;;;;;30.40;39.41;100059.12;1711786;83;21103;-66
2023/08/26 10:34:56;;;;;;;9.68;5.25;;;;;;;30.37;40.29;100056.14;1732064;83;21048;-67
2023/08/26 10:37:34;;;;;;;6.92;4.92;;;;;;;30.37;40.62;100062.62;1732427;82;21040;-66
2023/08/26 10:40:12;;;;;;;5.53;4.55;;;;;;;30.39;40.63;100060.30;1732345;83;21068;-67
2023/08/26 10:43:08;;;;;;;12.45;8.60;;;;;;;30.44;40.67;100061.52;1732235;83;21483;-66
2023/08/26 10:45:49;;;;;;;10.72;5.65;;;;;;;30.48;40.45;100055.43;1731221;82;21063;-66
2023/08/26 10:48:18;;;;;;;11.43;5.30;;;;;;;30.51;40.58;100042.61;1732335;83;21098;-65
2023/08/26 10:51:01;;;;;;;10.35;5.78;;;;;;;30.54;40.43;100043.34;1732448;83;21079;-67
2023/08/26 10:53:29;;;;;;;10.55;5.30;;;;;;;30.53;40.22;100046.76;1732433;83;21052;-65
2023/08/26 10:56:13;;;;;;;8.68;5.72;;;;;;;30.54;40.13;100052.66;1732273;82;21108;-67
2023/08/26 10:58:43;;;;;;;7.42;5.25;;;;;;;30.53;40.50;100052.41;1732482;82;21056;-65
2023/08/26 11:01:12;;;;;;;8.03;5.85;;;;;;;30.55;40.24;100052.91;1722653;83;21043;-66
2023/08/26 11:03:42;;;;;;;8.85;6.30;;;;;;;30.58;39.83;100051.42;1698305;84;21611;-66
2023/08/26 11:06:18;;;;;;;8.85;6.22;;;;;;;30.58;39.80;100045.77;1680775;84;21090;-66
2023/08/26 11:08:57;;;;;;;10.50;6.72;;;;;;;30.57;39.66;100044.94;1697620;82;21113;-66
2023/08/26 11:11:26;;;;;;;10.60;6.10;;;;;;;30.53;39.70;100049.59;1698391;84;21520;-67
2023/08/26 11:13:54;;;;;;;9.28;5.85;;;;;;;30.48;39.67;100050.36;1698463;84;21492;-66
2023/08/26 11:16:23;;;;;;;8.23;5.62;;;;;;;30.43;39.82;100049.13;1698220;84;21075;-65
2023/08/26 11:18:55;;;;;;;9.58;5.95;;;;;;;30.40;39.80;100044.98;1698507;84;21018;-67
2023/08/26 11:21:23;;;;;;;9.08;5.67;;;;;;;30.39;39.99;100046.73;1713463;82;21090;-66
2023/08/26 11:23:54;;;;;;;10.03;5.58;;;;;;;30.36;40.07;100046.83;1736328;82;21011;-66
2023/08/26 11:26:22;;;;;;;8.33;5.60;;;;;;;30.34;39.92;100037.86;1736661;82;21446;-67
2023/08/26 11:28:51;;;;;;;7.33;5.85;;;;;;;30.33;39.18;100036.78;1736410;82;20995;-66
2023/08/26 11:31:20;;;;;;;15.23;5.83;;;;;;;30.35;39.29;100038.11;1736294;82;21463;-68
2023/08/26 11:33:50;;;;;;;9.30;4.85;;;;;;;30.42;38.27;100040.41;1735590;82;21098;-64
2023/08/26 11:36:22;;;;;;;7.90;4.87;;;;;;;30.48;36.61;100037.05;1717801;82;21513;-67